Raco, Michigan
Current Conditions -  °F | °C
As of 1:00 PM on Monday 26 Jan 2015 (Local Time) from CYAM Reporting Station
Light Snow Light Snow  
Wind Chill: -4°   Ceiling: 9200
Heat Index: 10°   Visibility: 12mi
Dew Point:   Wind: 12mph
Humidity: 73%   Direction: 100°E
Pressure: 29.99"   Gusts: 20mph
Location:  46.4104°N, 84.5584°W
Report Text: CYAM 261800Z 10010G17KT 12SM -SN FEW012 SCT024 BKN092 M12/M16 A2999 RMK SC2SC2AC3 SLP176
Loading
Personal Weather Stations






























Interactive Weather Map New forecast layout! Learn more

10-Day Weather Forecast

Advertisements
Track Severe Weather on mobile